sensor_id;sensor_type;location;lat;lon;timestamp;temperature;humidity
72772;SHT30;60894;42.544;1.516;2024-03-07T00:00:05;2.06;72.54
72772;SHT30;60894;42.544;1.516;2024-03-07T00:02:40;2.00;72.97
72772;SHT30;60894;42.544;1.516;2024-03-07T00:05:08;1.97;73.08
72772;SHT30;60894;42.544;1.516;2024-03-07T00:07:36;1.89;72.93
72772;SHT30;60894;42.544;1.516;2024-03-07T00:10:03;1.83;73.56
72772;SHT30;60894;42.544;1.516;2024-03-07T00:12:32;1.76;73.49
72772;SHT30;60894;42.544;1.516;2024-03-07T00:15:01;1.77;73.15
72772;SHT30;60894;42.544;1.516;2024-03-07T00:17:28;1.89;73.49
72772;SHT30;60894;42.544;1.516;2024-03-07T00:19:55;1.90;73.49
72772;SHT30;60894;42.544;1.516;2024-03-07T00:22:24;1.80;73.83
72772;SHT30;60894;42.544;1.516;2024-03-07T00:24:55;1.86;73.57
72772;SHT30;60894;42.544;1.516;2024-03-07T00:27:22;1.62;73.84
72772;SHT30;60894;42.544;1.516;2024-03-07T00:29:49;1.60;74.03
72772;SHT30;60894;42.544;1.516;2024-03-07T00:32:19;1.74;73.99
72772;SHT30;60894;42.544;1.516;2024-03-07T00:34:46;1.71;73.74
72772;SHT30;60894;42.544;1.516;2024-03-07T00:37:14;1.59;74.21
72772;SHT30;60894;42.544;1.516;2024-03-07T00:39:42;1.59;74.21
72772;SHT30;60894;42.544;1.516;2024-03-07T00:42:09;1.40;74.43
72772;SHT30;60894;42.544;1.516;2024-03-07T00:44:36;1.62;73.96
72772;SHT30;60894;42.544;1.516;2024-03-07T00:47:04;1.43;74.38
72772;SHT30;60894;42.544;1.516;2024-03-07T00:49:31;1.31;75.02
72772;SHT30;60894;42.544;1.516;2024-03-07T00:51:58;1.42;74.34
72772;SHT30;60894;42.544;1.516;2024-03-07T00:54:26;1.49;74.61
72772;SHT30;60894;42.544;1.516;2024-03-07T00:56:54;1.56;74.78
72772;SHT30;60894;42.544;1.516;2024-03-07T00:59:21;1.56;74.65
72772;SHT30;60894;42.544;1.516;2024-03-07T01:01:48;1.55;74.11
72772;SHT30;60894;42.544;1.516;2024-03-07T01:04:15;1.40;74.96
72772;SHT30;60894;42.544;1.516;2024-03-07T01:06:43;1.39;75.06
72772;SHT30;60894;42.544;1.516;2024-03-07T01:09:10;1.21;75.11
72772;SHT30;60894;42.544;1.516;2024-03-07T01:11:40;1.07;76.00
72772;SHT30;60894;42.544;1.516;2024-03-07T01:14:09;0.98;76.24
72772;SHT30;60894;42.544;1.516;2024-03-07T01:16:36;1.08;76.44
72772;SHT30;60894;42.544;1.516;2024-03-07T01:19:02;1.19;75.66
72772;SHT30;60894;42.544;1.516;2024-03-07T01:21:31;1.18;75.47
72772;SHT30;60894;42.544;1.516;2024-03-07T01:23:58;1.19;75.75
72772;SHT30;60894;42.544;1.516;2024-03-07T01:26:26;1.29;75.41
72772;SHT30;60894;42.544;1.516;2024-03-07T01:28:53;1.32;75.33
72772;SHT30;60894;42.544;1.516;2024-03-07T01:31:22;1.15;75.53
72772;SHT30;60894;42.544;1.516;2024-03-07T01:33:49;1.12;75.67
72772;SHT30;60894;42.544;1.516;2024-03-07T01:36:16;1.17;75.59
72772;SHT30;60894;42.544;1.516;2024-03-07T01:38:42;1.12;75.29
72772;SHT30;60894;42.544;1.516;2024-03-07T01:41:09;0.92;75.92
72772;SHT30;60894;42.544;1.516;2024-03-07T01:43:36;0.70;77.15
72772;SHT30;60894;42.544;1.516;2024-03-07T01:46:04;0.84;76.50
72772;SHT30;60894;42.544;1.516;2024-03-07T01:48:33;0.58;77.16
72772;SHT30;60894;42.544;1.516;2024-03-07T01:51:00;0.57;77.19
72772;SHT30;60894;42.544;1.516;2024-03-07T01:53:30;0.81;76.84
72772;SHT30;60894;42.544;1.516;2024-03-07T01:55:57;0.98;76.11
72772;SHT30;60894;42.544;1.516;2024-03-07T01:58:25;1.02;76.57
72772;SHT30;60894;42.544;1.516;2024-03-07T02:00:53;0.88;76.40
72772;SHT30;60894;42.544;1.516;2024-03-07T02:03:20;0.88;76.17
72772;SHT30;60894;42.544;1.516;2024-03-07T02:05:49;0.71;76.49
72772;SHT30;60894;42.544;1.516;2024-03-07T02:08:17;0.88;76.43
72772;SHT30;60894;42.544;1.516;2024-03-07T02:10:45;0.98;76.48
72772;SHT30;60894;42.544;1.516;2024-03-07T02:13:12;1.02;75.70
72772;SHT30;60894;42.544;1.516;2024-03-07T02:15:39;0.78;76.27
72772;SHT30;60894;42.544;1.516;2024-03-07T02:18:08;0.83;76.53
72772;SHT30;60894;42.544;1.516;2024-03-07T02:20:35;0.80;76.54
72772;SHT30;60894;42.544;1.516;2024-03-07T02:23:04;0.80;76.70
72772;SHT30;60894;42.544;1.516;2024-03-07T02:25:31;0.84;76.30
72772;SHT30;60894;42.544;1.516;2024-03-07T02:28:03;0.83;76.39
72772;SHT30;60894;42.544;1.516;2024-03-07T02:30:31;0.91;76.16
72772;SHT30;60894;42.544;1.516;2024-03-07T02:32:58;0.83;76.06
72772;SHT30;60894;42.544;1.516;2024-03-07T02:35:32;0.91;75.81
72772;SHT30;60894;42.544;1.516;2024-03-07T02:38:01;0.89;75.85
72772;SHT30;60894;42.544;1.516;2024-03-07T02:40:29;0.67;76.61
72772;SHT30;60894;42.544;1.516;2024-03-07T02:42:56;0.63;77.00
72772;SHT30;60894;42.544;1.516;2024-03-07T02:45:23;0.73;76.73
72772;SHT30;60894;42.544;1.516;2024-03-07T02:47:50;0.89;76.16
72772;SHT30;60894;42.544;1.516;2024-03-07T02:50:19;0.80;76.25
72772;SHT30;60894;42.544;1.516;2024-03-07T02:52:48;0.70;76.66
72772;SHT30;60894;42.544;1.516;2024-03-07T02:55:18;0.71;76.95
72772;SHT30;60894;42.544;1.516;2024-03-07T02:57:47;0.61;77.11
72772;SHT30;60894;42.544;1.516;2024-03-07T03:00:14;0.68;77.29
72772;SHT30;60894;42.544;1.516;2024-03-07T03:02:52;0.57;76.62
72772;SHT30;60894;42.544;1.516;2024-03-07T03:05:19;0.85;77.06
72772;SHT30;60894;42.544;1.516;2024-03-07T03:07:46;0.92;75.63
72772;SHT30;60894;42.544;1.516;2024-03-07T03:10:20;1.04;75.85
72772;SHT30;60894;42.544;1.516;2024-03-07T03:12:52;0.89;75.76
72772;SHT30;60894;42.544;1.516;2024-03-07T03:15:20;0.80;76.61
72772;SHT30;60894;42.544;1.516;2024-03-07T03:17:47;0.77;76.89
72772;SHT30;60894;42.544;1.516;2024-03-07T03:20:15;0.60;76.94
72772;SHT30;60894;42.544;1.516;2024-03-07T03:22:53;0.66;77.15
72772;SHT30;60894;42.544;1.516;2024-03-07T03:25:20;0.74;76.77
72772;SHT30;60894;42.544;1.516;2024-03-07T03:27:49;0.70;76.69
72772;SHT30;60894;42.544;1.516;2024-03-07T03:30:17;0.61;76.88
72772;SHT30;60894;42.544;1.516;2024-03-07T03:32:45;0.70;77.29
72772;SHT30;60894;42.544;1.516;2024-03-07T03:35:13;0.74;77.15
72772;SHT30;60894;42.544;1.516;2024-03-07T03:37:41;0.81;76.70
72772;SHT30;60894;42.544;1.516;2024-03-07T03:40:09;0.80;76.94
72772;SHT30;60894;42.544;1.516;2024-03-07T03:42:37;0.63;76.80
72772;SHT30;60894;42.544;1.516;2024-03-07T03:45:05;0.64;77.11
72772;SHT30;60894;42.544;1.516;2024-03-07T03:47:35;0.78;77.28
72772;SHT30;60894;42.544;1.516;2024-03-07T03:50:03;0.89;76.85
72772;SHT30;60894;42.544;1.516;2024-03-07T03:52:31;0.94;76.64
72772;SHT30;60894;42.544;1.516;2024-03-07T03:54:58;1.09;75.75
72772;SHT30;60894;42.544;1.516;2024-03-07T03:57:25;0.97;76.01
72772;SHT30;60894;42.544;1.516;2024-03-07T03:59:52;0.64;76.68
72772;SHT30;60894;42.544;1.516;2024-03-07T04:02:18;0.66;77.11
72772;SHT30;60894;42.544;1.516;2024-03-07T04:04:47;0.87;76.24
72772;SHT30;60894;42.544;1.516;2024-03-07T04:07:14;0.66;76.90
72772;SHT30;60894;42.544;1.516;2024-03-07T04:09:42;0.80;77.05
72772;SHT30;60894;42.544;1.516;2024-03-07T04:12:10;0.81;76.92
72772;SHT30;60894;42.544;1.516;2024-03-07T04:14:37;0.80;76.97
72772;SHT30;60894;42.544;1.516;2024-03-07T04:17:04;0.76;76.51
72772;SHT30;60894;42.544;1.516;2024-03-07T04:19:34;0.85;76.44
72772;SHT30;60894;42.544;1.516;2024-03-07T04:22:02;0.91;76.58
72772;SHT30;60894;42.544;1.516;2024-03-07T04:24:30;0.76;76.84
72772;SHT30;60894;42.544;1.516;2024-03-07T04:26:58;0.77;76.98
72772;SHT30;60894;42.544;1.516;2024-03-07T04:29:26;0.74;77.43
72772;SHT30;60894;42.544;1.516;2024-03-07T04:31:53;0.80;77.60
72772;SHT30;60894;42.544;1.516;2024-03-07T04:34:20;0.80;77.28
72772;SHT30;60894;42.544;1.516;2024-03-07T04:36:46;0.83;77.17
72772;SHT30;60894;42.544;1.516;2024-03-07T04:39:14;0.78;77.33
72772;SHT30;60894;42.544;1.516;2024-03-07T04:41:50;0.76;76.70
72772;SHT30;60894;42.544;1.516;2024-03-07T04:44:18;0.91;76.60
72772;SHT30;60894;42.544;1.516;2024-03-07T04:46:48;0.97;74.73
72772;SHT30;60894;42.544;1.516;2024-03-07T04:49:15;0.89;76.23
72772;SHT30;60894;42.544;1.516;2024-03-07T04:51:42;0.64;76.71
72772;SHT30;60894;42.544;1.516;2024-03-07T04:54:09;0.50;77.59
72772;SHT30;60894;42.544;1.516;2024-03-07T04:56:37;0.63;77.56
72772;SHT30;60894;42.544;1.516;2024-03-07T04:59:04;0.64;77.17
72772;SHT30;60894;42.544;1.516;2024-03-07T05:01:32;0.80;76.53
72772;SHT30;60894;42.544;1.516;2024-03-07T05:03:59;0.58;77.14
72772;SHT30;60894;42.544;1.516;2024-03-07T05:06:26;0.78;76.21
72772;SHT30;60894;42.544;1.516;2024-03-07T05:08:54;0.66;76.73
72772;SHT30;60894;42.544;1.516;2024-03-07T05:11:21;0.66;77.15
72772;SHT30;60894;42.544;1.516;2024-03-07T05:13:49;0.52;77.53
72772;SHT30;60894;42.544;1.516;2024-03-07T05:16:17;0.42;77.50
72772;SHT30;60894;42.544;1.516;2024-03-07T05:18:45;0.56;77.05
72772;SHT30;60894;42.544;1.516;2024-03-07T05:21:12;0.66;76.76
72772;SHT30;60894;42.544;1.516;2024-03-07T05:23:57;0.56;77.16
72772;SHT30;60894;42.544;1.516;2024-03-07T05:26:24;0.53;77.30
72772;SHT30;60894;42.544;1.516;2024-03-07T05:28:53;0.74;76.53
72772;SHT30;60894;42.544;1.516;2024-03-07T05:31:20;0.58;76.11
72772;SHT30;60894;42.544;1.516;2024-03-07T05:33:47;0.52;77.24
72772;SHT30;60894;42.544;1.516;2024-03-07T05:36:14;0.56;76.93
72772;SHT30;60894;42.544;1.516;2024-03-07T05:38:41;0.56;76.02
72772;SHT30;60894;42.544;1.516;2024-03-07T05:41:09;0.53;77.21
72772;SHT30;60894;42.544;1.516;2024-03-07T05:43:38;0.47;77.32
72772;SHT30;60894;42.544;1.516;2024-03-07T05:46:07;0.47;77.22
72772;SHT30;60894;42.544;1.516;2024-03-07T05:48:35;0.50;77.36
72772;SHT30;60894;42.544;1.516;2024-03-07T05:51:03;0.46;77.69
72772;SHT30;60894;42.544;1.516;2024-03-07T05:53:30;0.36;77.76
72772;SHT30;60894;42.544;1.516;2024-03-07T05:55:57;0.42;77.75
72772;SHT30;60894;42.544;1.516;2024-03-07T05:58:23;0.26;78.15
72772;SHT30;60894;42.544;1.516;2024-03-07T06:00:50;0.35;77.64
72772;SHT30;60894;42.544;1.516;2024-03-07T06:03:19;0.54;77.17
72772;SHT30;60894;42.544;1.516;2024-03-07T06:05:46;0.52;77.58
72772;SHT30;60894;42.544;1.516;2024-03-07T06:08:14;0.52;77.17
72772;SHT30;60894;42.544;1.516;2024-03-07T06:10:43;0.39;77.89
72772;SHT30;60894;42.544;1.516;2024-03-07T06:13:10;0.46;77.42
72772;SHT30;60894;42.544;1.516;2024-03-07T06:15:38;0.40;77.64
72772;SHT30;60894;42.544;1.516;2024-03-07T06:18:05;0.36;78.05
72772;SHT30;60894;42.544;1.516;2024-03-07T06:20:35;0.39;77.94
72772;SHT30;60894;42.544;1.516;2024-03-07T06:23:02;0.66;77.16
72772;SHT30;60894;42.544;1.516;2024-03-07T06:25:30;0.61;77.27
72772;SHT30;60894;42.544;1.516;2024-03-07T06:28:03;0.63;77.00
72772;SHT30;60894;42.544;1.516;2024-03-07T06:30:36;0.63;77.06
72772;SHT30;60894;42.544;1.516;2024-03-07T06:33:04;0.60;77.63
72772;SHT30;60894;42.544;1.516;2024-03-07T06:35:31;0.73;76.97
72772;SHT30;60894;42.544;1.516;2024-03-07T06:37:59;0.87;76.81
72772;SHT30;60894;42.544;1.516;2024-03-07T06:40:26;0.76;77.26
72772;SHT30;60894;42.544;1.516;2024-03-07T06:42:53;0.74;77.28
72772;SHT30;60894;42.544;1.516;2024-03-07T06:45:20;0.81;77.22
72772;SHT30;60894;42.544;1.516;2024-03-07T06:47:49;0.73;77.09
72772;SHT30;60894;42.544;1.516;2024-03-07T06:50:18;0.68;76.97
72772;SHT30;60894;42.544;1.516;2024-03-07T06:52:45;0.66;77.03
72772;SHT30;60894;42.544;1.516;2024-03-07T06:55:14;0.83;76.35
72772;SHT30;60894;42.544;1.516;2024-03-07T06:57:42;0.80;76.16
72772;SHT30;60894;42.544;1.516;2024-03-07T07:00:10;0.74;77.06
72772;SHT30;60894;42.544;1.516;2024-03-07T07:02:38;0.89;76.80
72772;SHT30;60894;42.544;1.516;2024-03-07T07:05:06;0.94;76.46
72772;SHT30;60894;42.544;1.516;2024-03-07T07:07:37;0.85;76.15
72772;SHT30;60894;42.544;1.516;2024-03-07T07:10:06;0.98;76.60
72772;SHT30;60894;42.544;1.516;2024-03-07T07:12:36;1.09;76.16
72772;SHT30;60894;42.544;1.516;2024-03-07T07:15:04;1.17;75.92
72772;SHT30;60894;42.544;1.516;2024-03-07T07:17:31;1.19;76.38
72772;SHT30;60894;42.544;1.516;2024-03-07T07:19:59;1.28;76.39
72772;SHT30;60894;42.544;1.516;2024-03-07T07:22:26;1.18;75.75
72772;SHT30;60894;42.544;1.516;2024-03-07T07:24:53;1.25;75.48
72772;SHT30;60894;42.544;1.516;2024-03-07T07:27:20;1.39;76.04
72772;SHT30;60894;42.544;1.516;2024-03-07T07:29:48;1.43;75.17
72772;SHT30;60894;42.544;1.516;2024-03-07T07:32:15;1.52;75.08
72772;SHT30;60894;42.544;1.516;2024-03-07T07:34:42;1.60;74.74
72772;SHT30;60894;42.544;1.516;2024-03-07T07:37:09;1.64;74.65
72772;SHT30;60894;42.544;1.516;2024-03-07T07:39:37;1.76;74.88
72772;SHT30;60894;42.544;1.516;2024-03-07T07:42:04;1.80;74.32
72772;SHT30;60894;42.544;1.516;2024-03-07T07:44:31;1.90;73.61
72772;SHT30;60894;42.544;1.516;2024-03-07T07:47:00;1.94;73.56
72772;SHT30;60894;42.544;1.516;2024-03-07T07:49:28;2.04;73.43
72772;SHT30;60894;42.544;1.516;2024-03-07T07:51:55;2.13;72.88
72772;SHT30;60894;42.544;1.516;2024-03-07T07:54:21;2.15;73.44
72772;SHT30;60894;42.544;1.516;2024-03-07T07:56:50;2.31;72.78
72772;SHT30;60894;42.544;1.516;2024-03-07T07:59:17;2.40;72.38
72772;SHT30;60894;42.544;1.516;2024-03-07T08:01:44;2.38;71.39
72772;SHT30;60894;42.544;1.516;2024-03-07T08:04:12;2.28;70.05
72772;SHT30;60894;42.544;1.516;2024-03-07T08:06:39;2.22;70.74
72772;SHT30;60894;42.544;1.516;2024-03-07T08:09:06;2.37;70.64
72772;SHT30;60894;42.544;1.516;2024-03-07T08:11:36;2.55;71.32
72772;SHT30;60894;42.544;1.516;2024-03-07T08:14:03;2.53;71.17
72772;SHT30;60894;42.544;1.516;2024-03-07T08:16:32;2.73;71.44
72772;SHT30;60894;42.544;1.516;2024-03-07T08:18:59;2.66;70.20
72772;SHT30;60894;42.544;1.516;2024-03-07T08:21:27;2.75;69.82
72772;SHT30;60894;42.544;1.516;2024-03-07T08:23:54;2.73;70.24
72772;SHT30;60894;42.544;1.516;2024-03-07T08:26:21;2.96;69.73
72772;SHT30;60894;42.544;1.516;2024-03-07T08:28:48;3.31;68.35
72772;SHT30;60894;42.544;1.516;2024-03-07T08:31:15;3.51;67.32
72772;SHT30;60894;42.544;1.516;2024-03-07T08:33:42;3.72;65.27
72772;SHT30;60894;42.544;1.516;2024-03-07T08:36:11;3.88;64.79
72772;SHT30;60894;42.544;1.516;2024-03-07T08:38:40;4.33;62.35
72772;SHT30;60894;42.544;1.516;2024-03-07T08:41:09;4.43;60.40
72772;SHT30;60894;42.544;1.516;2024-03-07T08:43:36;4.58;58.96
72772;SHT30;60894;42.544;1.516;2024-03-07T08:46:03;4.36;60.16
72772;SHT30;60894;42.544;1.516;2024-03-07T08:48:30;4.15;59.58
72772;SHT30;60894;42.544;1.516;2024-03-07T08:50:57;4.33;60.74
72772;SHT30;60894;42.544;1.516;2024-03-07T08:53:24;4.40;57.92
72772;SHT30;60894;42.544;1.516;2024-03-07T08:55:52;4.36;57.91
72772;SHT30;60894;42.544;1.516;2024-03-07T08:58:19;4.94;56.35
72772;SHT30;60894;42.544;1.516;2024-03-07T09:00:46;5.14;56.11
72772;SHT30;60894;42.544;1.516;2024-03-07T09:03:14;5.40;54.82
72772;SHT30;60894;42.544;1.516;2024-03-07T09:05:44;5.80;53.71
72772;SHT30;60894;42.544;1.516;2024-03-07T09:08:11;6.20;51.97
72772;SHT30;60894;42.544;1.516;2024-03-07T09:10:38;6.29;52.44
72772;SHT30;60894;42.544;1.516;2024-03-07T09:13:08;6.37;51.74
72772;SHT30;60894;42.544;1.516;2024-03-07T09:15:35;6.62;51.40
72772;SHT30;60894;42.544;1.516;2024-03-07T09:18:03;6.35;50.18
72772;SHT30;60894;42.544;1.516;2024-03-07T09:20:31;6.34;50.18
72772;SHT30;60894;42.544;1.516;2024-03-07T09:22:58;6.53;51.62
72772;SHT30;60894;42.544;1.516;2024-03-07T09:25:25;6.61;50.31
72772;SHT30;60894;42.544;1.516;2024-03-07T09:27:53;6.64;49.89
72772;SHT30;60894;42.544;1.516;2024-03-07T09:30:22;6.85;47.90
72772;SHT30;60894;42.544;1.516;2024-03-07T09:32:53;6.78;48.23
72772;SHT30;60894;42.544;1.516;2024-03-07T09:35:20;6.93;49.85
72772;SHT30;60894;42.544;1.516;2024-03-07T09:37:47;7.11;46.12
72772;SHT30;60894;42.544;1.516;2024-03-07T09:40:15;7.43;46.48
72772;SHT30;60894;42.544;1.516;2024-03-07T09:42:43;7.75;46.49
72772;SHT30;60894;42.544;1.516;2024-03-07T09:45:14;8.03;45.60
72772;SHT30;60894;42.544;1.516;2024-03-07T09:47:45;8.30;43.87
72772;SHT30;60894;42.544;1.516;2024-03-07T09:50:15;8.32;43.25
72772;SHT30;60894;42.544;1.516;2024-03-07T09:52:45;8.07;45.88
72772;SHT30;60894;42.544;1.516;2024-03-07T09:55:13;8.32;44.45
72772;SHT30;60894;42.544;1.516;2024-03-07T09:57:41;8.20;45.59
72772;SHT30;60894;42.544;1.516;2024-03-07T10:00:10;7.75;45.45
72772;SHT30;60894;42.544;1.516;2024-03-07T10:02:46;7.69;45.69
72772;SHT30;60894;42.544;1.516;2024-03-07T10:05:15;8.06;45.32
72772;SHT30;60894;42.544;1.516;2024-03-07T10:07:42;8.12;45.03
72772;SHT30;60894;42.544;1.516;2024-03-07T10:10:09;8.29;44.54
72772;SHT30;60894;42.544;1.516;2024-03-07T10:12:37;8.43;43.59
72772;SHT30;60894;42.544;1.516;2024-03-07T10:15:05;8.19;43.40
72772;SHT30;60894;42.544;1.516;2024-03-07T10:17:36;7.99;43.84
72772;SHT30;60894;42.544;1.516;2024-03-07T10:20:06;8.06;44.13
72772;SHT30;60894;42.544;1.516;2024-03-07T10:22:35;8.03;45.58
72772;SHT30;60894;42.544;1.516;2024-03-07T10:25:04;7.95;44.12
72772;SHT30;60894;42.544;1.516;2024-03-07T10:27:31;8.29;44.03
72772;SHT30;60894;42.544;1.516;2024-03-07T10:29:58;8.63;43.20
72772;SHT30;60894;42.544;1.516;2024-03-07T10:32:24;8.59;44.37
72772;SHT30;60894;42.544;1.516;2024-03-07T10:34:52;8.82;42.91
72772;SHT30;60894;42.544;1.516;2024-03-07T10:37:21;9.02;43.29
72772;SHT30;60894;42.544;1.516;2024-03-07T10:39:50;9.08;43.43
72772;SHT30;60894;42.544;1.516;2024-03-07T10:42:18;9.21;43.83
72772;SHT30;60894;42.544;1.516;2024-03-07T10:44:48;9.22;44.09
72772;SHT30;60894;42.544;1.516;2024-03-07T10:47:18;9.29;43.63
72772;SHT30;60894;42.544;1.516;2024-03-07T10:49:56;9.18;44.01
72772;SHT30;60894;42.544;1.516;2024-03-07T10:52:29;9.25;43.37
72772;SHT30;60894;42.544;1.516;2024-03-07T10:55:08;9.33;43.63
72772;SHT30;60894;42.544;1.516;2024-03-07T10:57:44;9.35;43.63
72772;SHT30;60894;42.544;1.516;2024-03-07T11:00:12;9.43;44.29
72772;SHT30;60894;42.544;1.516;2024-03-07T11:02:56;9.52;44.40
72772;SHT30;60894;42.544;1.516;2024-03-07T11:05:25;9.60;43.44
72772;SHT30;60894;42.544;1.516;2024-03-07T11:07:58;9.62;44.55
72772;SHT30;60894;42.544;1.516;2024-03-07T11:10:25;9.69;44.01
72772;SHT30;60894;42.544;1.516;2024-03-07T11:12:54;9.57;45.38
72772;SHT30;60894;42.544;1.516;2024-03-07T11:15:22;9.70;43.83
72772;SHT30;60894;42.544;1.516;2024-03-07T11:17:51;9.64;43.67
72772;SHT30;60894;42.544;1.516;2024-03-07T11:20:21;9.87;43.71
72772;SHT30;60894;42.544;1.516;2024-03-07T11:22:48;9.87;43.30
72772;SHT30;60894;42.544;1.516;2024-03-07T11:25:19;10.00;43.29
72772;SHT30;60894;42.544;1.516;2024-03-07T11:27:55;9.91;42.36
72772;SHT30;60894;42.544;1.516;2024-03-07T11:30:24;9.95;43.35
72772;SHT30;60894;42.544;1.516;2024-03-07T11:32:52;10.07;42.80
72772;SHT30;60894;42.544;1.516;2024-03-07T11:35:20;10.08;42.58
72772;SHT30;60894;42.544;1.516;2024-03-07T11:37:56;10.20;40.29
72772;SHT30;60894;42.544;1.516;2024-03-07T11:40:44;10.45;39.66
72772;SHT30;60894;42.544;1.516;2024-03-07T11:43:12;10.68;38.29
72772;SHT30;60894;42.544;1.516;2024-03-07T11:45:39;10.82;37.99
72772;SHT30;60894;42.544;1.516;2024-03-07T11:48:10;10.89;36.80
72772;SHT30;60894;42.544;1.516;2024-03-07T11:50:39;11.13;36.48
72772;SHT30;60894;42.544;1.516;2024-03-07T11:53:07;11.51;35.96
72772;SHT30;60894;42.544;1.516;2024-03-07T11:55:35;11.82;34.10
72772;SHT30;60894;42.544;1.516;2024-03-07T11:58:12;12.08;33.16
72772;SHT30;60894;42.544;1.516;2024-03-07T12:00:40;12.56;33.02
72772;SHT30;60894;42.544;1.516;2024-03-07T12:03:11;12.72;33.32
72772;SHT30;60894;42.544;1.516;2024-03-07T12:05:42;13.05;31.83
72772;SHT30;60894;42.544;1.516;2024-03-07T12:08:10;13.35;32.00
72772;SHT30;60894;42.544;1.516;2024-03-07T12:10:37;13.41;30.86
72772;SHT30;60894;42.544;1.516;2024-03-07T12:13:06;13.42;31.16
72772;SHT30;60894;42.544;1.516;2024-03-07T12:15:35;12.88;31.10
72772;SHT30;60894;42.544;1.516;2024-03-07T12:18:04;13.03;30.94
72772;SHT30;60894;42.544;1.516;2024-03-07T12:20:36;13.08;30.78
72772;SHT30;60894;42.544;1.516;2024-03-07T12:23:04;12.83;30.92
72772;SHT30;60894;42.544;1.516;2024-03-07T12:25:34;12.94;31.64
72772;SHT30;60894;42.544;1.516;2024-03-07T12:28:06;12.67;29.78
72772;SHT30;60894;42.544;1.516;2024-03-07T12:30:48;12.68;31.26
72772;SHT30;60894;42.544;1.516;2024-03-07T12:33:16;12.45;29.87
72772;SHT30;60894;42.544;1.516;2024-03-07T12:35:44;12.93;29.85
72772;SHT30;60894;42.544;1.516;2024-03-07T12:38:11;13.01;30.43
72772;SHT30;60894;42.544;1.516;2024-03-07T12:40:40;12.94;30.04
72772;SHT30;60894;42.544;1.516;2024-03-07T12:43:17;13.28;30.27
72772;SHT30;60894;42.544;1.516;2024-03-07T12:45:48;13.45;29.64
72772;SHT30;60894;42.544;1.516;2024-03-07T12:48:15;13.45;29.32
72772;SHT30;60894;42.544;1.516;2024-03-07T12:50:44;13.59;28.61
72772;SHT30;60894;42.544;1.516;2024-03-07T12:53:12;13.87;28.56
72772;SHT30;60894;42.544;1.516;2024-03-07T12:55:39;14.03;26.96
72772;SHT30;60894;42.544;1.516;2024-03-07T12:58:08;13.86;26.66
72772;SHT30;60894;42.544;1.516;2024-03-07T13:00:37;14.09;26.59
72772;SHT30;60894;42.544;1.516;2024-03-07T13:03:06;13.95;26.89
72772;SHT30;60894;42.544;1.516;2024-03-07T13:05:33;13.97;27.96
72772;SHT30;60894;42.544;1.516;2024-03-07T13:08:00;13.72;26.73
72772;SHT30;60894;42.544;1.516;2024-03-07T13:10:27;13.62;26.73
72772;SHT30;60894;42.544;1.516;2024-03-07T13:12:53;13.51;25.07
72772;SHT30;60894;42.544;1.516;2024-03-07T13:15:21;13.42;25.47
72772;SHT30;60894;42.544;1.516;2024-03-07T13:17:50;13.62;26.02
72772;SHT30;60894;42.544;1.516;2024-03-07T13:20:20;13.63;27.45
72772;SHT30;60894;42.544;1.516;2024-03-07T13:22:51;13.86;27.93
72772;SHT30;60894;42.544;1.516;2024-03-07T13:25:22;13.52;27.04
72772;SHT30;60894;42.544;1.516;2024-03-07T13:27:55;13.51;26.26
72772;SHT30;60894;42.544;1.516;2024-03-07T13:30:23;13.17;26.99
72772;SHT30;60894;42.544;1.516;2024-03-07T13:32:53;13.79;27.50
72772;SHT30;60894;42.544;1.516;2024-03-07T13:35:22;13.86;26.84
72772;SHT30;60894;42.544;1.516;2024-03-07T13:37:51;13.65;26.83
72772;SHT30;60894;42.544;1.516;2024-03-07T13:40:19;14.16;27.96
72772;SHT30;60894;42.544;1.516;2024-03-07T13:42:50;14.38;28.93
72772;SHT30;60894;42.544;1.516;2024-03-07T13:45:23;14.02;29.03
72772;SHT30;60894;42.544;1.516;2024-03-07T13:47:52;14.14;29.09
72772;SHT30;60894;42.544;1.516;2024-03-07T13:50:22;14.47;29.51
72772;SHT30;60894;42.544;1.516;2024-03-07T13:52:50;14.36;29.38
72772;SHT30;60894;42.544;1.516;2024-03-07T14:02:09;14.38;30.20
72772;SHT30;60894;42.544;1.516;2024-03-07T14:04:48;14.27;30.44
72772;SHT30;60894;42.544;1.516;2024-03-07T14:07:35;13.93;29.70
72772;SHT30;60894;42.544;1.516;2024-03-07T14:10:33;13.80;29.64
72772;SHT30;60894;42.544;1.516;2024-03-07T14:13:32;14.24;31.77
72772;SHT30;60894;42.544;1.516;2024-03-07T14:19:57;13.63;33.79
72772;SHT30;60894;42.544;1.516;2024-03-07T14:23:00;13.73;31.82
72772;SHT30;60894;42.544;1.516;2024-03-07T14:26:02;13.69;31.62
72772;SHT30;60894;42.544;1.516;2024-03-07T14:28:51;13.38;33.45
72772;SHT30;60894;42.544;1.516;2024-03-07T14:31:22;13.15;33.34
72772;SHT30;60894;42.544;1.516;2024-03-07T14:34:02;12.73;32.94
72772;SHT30;60894;42.544;1.516;2024-03-07T14:36:37;12.83;33.39
72772;SHT30;60894;42.544;1.516;2024-03-07T14:39:07;12.94;34.25
72772;SHT30;60894;42.544;1.516;2024-03-07T14:41:58;13.15;34.29
72772;SHT30;60894;42.544;1.516;2024-03-07T14:44:25;13.03;34.77
72772;SHT30;60894;42.544;1.516;2024-03-07T14:46:56;12.74;35.07
72772;SHT30;60894;42.544;1.516;2024-03-07T14:49:25;12.74;35.39
72772;SHT30;60894;42.544;1.516;2024-03-07T14:51:52;12.72;35.45
72772;SHT30;60894;42.544;1.516;2024-03-07T14:54:21;12.73;35.05
72772;SHT30;60894;42.544;1.516;2024-03-07T14:56:48;12.81;36.50
72772;SHT30;60894;42.544;1.516;2024-03-07T14:59:15;12.86;35.48
72772;SHT30;60894;42.544;1.516;2024-03-07T15:01:43;12.87;34.84
72772;SHT30;60894;42.544;1.516;2024-03-07T15:04:11;12.84;35.65
72772;SHT30;60894;42.544;1.516;2024-03-07T15:06:38;12.61;35.04
72772;SHT30;60894;42.544;1.516;2024-03-07T15:09:06;12.67;34.71
72772;SHT30;60894;42.544;1.516;2024-03-07T15:11:37;12.80;34.56
72772;SHT30;60894;42.544;1.516;2024-03-07T15:14:06;12.81;34.43
72772;SHT30;60894;42.544;1.516;2024-03-07T15:16:34;12.81;35.03
72772;SHT30;60894;42.544;1.516;2024-03-07T15:19:03;12.73;35.46
72772;SHT30;60894;42.544;1.516;2024-03-07T15:21:30;12.72;35.42
72772;SHT30;60894;42.544;1.516;2024-03-07T15:23:58;12.59;36.04
72772;SHT30;60894;42.544;1.516;2024-03-07T15:26:25;12.56;35.35
72772;SHT30;60894;42.544;1.516;2024-03-07T15:28:54;12.25;35.63
72772;SHT30;60894;42.544;1.516;2024-03-07T15:31:21;12.04;35.48
72772;SHT30;60894;42.544;1.516;2024-03-07T15:33:49;11.99;35.99
72772;SHT30;60894;42.544;1.516;2024-03-07T15:36:17;12.01;36.42
72772;SHT30;60894;42.544;1.516;2024-03-07T15:38:44;11.92;37.34
72772;SHT30;60894;42.544;1.516;2024-03-07T15:41:11;11.99;37.35
72772;SHT30;60894;42.544;1.516;2024-03-07T15:43:39;11.91;37.12
72772;SHT30;60894;42.544;1.516;2024-03-07T15:46:10;11.84;36.59
72772;SHT30;60894;42.544;1.516;2024-03-07T15:48:38;11.81;36.50
72772;SHT30;60894;42.544;1.516;2024-03-07T15:51:06;11.74;36.47
72772;SHT30;60894;42.544;1.516;2024-03-07T15:53:37;11.70;36.04
72772;SHT30;60894;42.544;1.516;2024-03-07T15:56:04;11.65;36.77
72772;SHT30;60894;42.544;1.516;2024-03-07T15:58:32;11.70;35.78
72772;SHT30;60894;42.544;1.516;2024-03-07T16:00:59;11.73;36.45
72772;SHT30;60894;42.544;1.516;2024-03-07T16:03:28;11.57;36.46